Main page
METAR-TAF:

METAR-TAF

Airports :

York Airport

York, Pennsylvania, United States

latitude: 39-55-10N, longitude: 076-52-37W, elevation: 479 ft

Current weather observation

The report was made 28 minutes ago, at 03:53 UTC
Calm wind
Temperature 45°F
Humidity 53%
Pressure 29.90 in. Hg
Visibility: 10 miles
Scattered clouds at a height of 11000 ft

METAR: KTHV 250353Z AUTO 00000KT 10SM SCT110 07/M02 A2990 RMK AO2 SLP127 T00721017

Time: 23:21 (04:21 UTC)


TAF: missing

Weather observations and forecasts of more than 4000 airports (METAR and TAF reports).

The available stations are represented by yellow and red dots on the map.

Hover mouse over dot to see the name of the station.

Then click to see weather observations and forecasts.

To change the map : click on the green buttons with a black cross to zoom in, on the green button with a dash to zoom out, or on the green arrows for adjacent maps.


METAR-TAF: